Time;durP1;ratioP1;P1;durP2;ratioP2;P2;SDS_P1;SDS_P2;PMS_P1;PMS_P2;Temp;Humidity;BMP_temperature;BMP_pressure;BME280_temperature;BME280_humidity;BME280_pressure;Samples;Min_cycle;Max_cycle;Signal;HPM_P1;HPM_P2
2022/03/05 00:00:32;;;;;;;;;70.75;52.25;;;;;11.21;65.24;101534.19;5077150;27;47044;-42
2022/03/05 00:02:59;;;;;;;;;73.75;46.00;;;;;11.19;65.34;101530.81;5077088;27;45345;-43
2022/03/05 00:05:24;;;;;;;;;65.00;47.50;;;;;11.16;65.96;101529.22;5077181;27;45391;-43
2022/03/05 00:07:50;;;;;;;;;62.75;44.00;;;;;11.12;65.69;101527.81;5077808;27;45268;-44
2022/03/05 00:10:18;;;;;;;;;61.75;44.00;;;;;11.09;66.42;101528.09;5077049;27;45693;-43
2022/03/05 00:12:44;;;;;;;;;69.25;49.25;;;;;11.07;66.42;101523.84;5077059;27;45336;-44
2022/03/05 00:15:09;;;;;;;;;38.25;36.50;;;;;11.06;66.51;101532.84;5077025;27;45362;-43
2022/03/05 00:17:35;;;;;;;;;66.50;49.50;;;;;11.04;66.24;101527.66;5077267;27;45405;-44
2022/03/05 00:20:00;;;;;;;;;52.75;25.00;;;;;11.07;66.20;101518.53;5077093;27;46192;-45
2022/03/05 00:22:26;;;;;;;;;66.25;48.50;;;;;11.04;66.02;101522.31;5077053;27;45899;-44
2022/03/05 00:24:52;;;;;;;;;70.50;51.00;;;;;11.05;66.46;101523.16;5077306;27;45326;-42
2022/03/05 00:27:17;;;;;;;;;60.50;42.75;;;;;11.05;66.30;101521.34;5077243;27;45425;-42
2022/03/05 00:29:44;;;;;;;;;56.00;44.00;;;;;11.04;66.51;101524.97;5077105;27;45444;-43
2022/03/05 00:32:09;;;;;;;;;70.50;44.50;;;;;11.04;66.35;101527.66;5076693;27;45440;-44
2022/03/05 00:34:35;;;;;;;;;64.00;44.25;;;;;11.04;66.44;101529.44;5076719;27;45477;-44
2022/03/05 00:37:00;;;;;;;;;60.75;46.75;;;;;11.04;66.40;101529.44;5076963;27;45376;-42
2022/03/05 00:39:25;;;;;;;;;66.00;48.25;;;;;11.01;65.94;101524.41;5076620;27;45513;-43
2022/03/05 00:41:51;;;;;;;;;64.75;48.00;;;;;10.94;66.71;101514.25;5076454;27;45180;-45
2022/03/05 00:44:17;;;;;;;;;58.25;40.25;;;;;10.98;66.35;101521.00;5076636;27;45393;-43
2022/03/05 00:46:42;;;;;;;;;57.25;41.25;;;;;10.96;66.50;101516.81;5076785;27;45328;-43
2022/03/05 00:49:08;;;;;;;;;56.50;40.25;;;;;10.97;66.43;101518.47;5075691;27;45939;-43
2022/03/05 00:51:34;;;;;;;;;50.75;39.50;;;;;10.96;66.53;101517.66;5076442;27;45407;-43
2022/03/05 00:53:59;;;;;;;;;36.00;31.75;;;;;10.88;66.81;101509.47;5076654;27;45426;-44
2022/03/05 00:56:25;;;;;;;;;47.50;38.50;;;;;10.86;66.67;101513.22;5076621;27;45310;-43
2022/03/05 00:58:50;;;;;;;;;50.50;38.00;;;;;10.91;66.49;101522.53;5076218;27;46897;-43
2022/03/05 01:01:15;;;;;;;;;58.00;40.50;;;;;10.87;66.74;101517.56;5076358;27;45347;-43
2022/03/05 01:03:41;;;;;;;;;57.50;41.50;;;;;10.88;66.11;101524.59;5076394;27;45718;-45
2022/03/05 01:06:06;;;;;;;;;47.75;38.00;;;;;10.86;66.37;101513.22;5076221;27;45350;-44
2022/03/05 01:08:33;;;;;;;;;61.75;44.25;;;;;10.85;66.22;101516.84;5076216;27;46183;-45
2022/03/05 01:10:59;;;;;;;;;49.00;39.75;;;;;10.77;65.97;101514.84;5076067;27;45355;-42
2022/03/05 01:13:25;;;;;;;;;59.75;43.00;;;;;10.72;66.08;101511.72;5076214;27;45414;-43
2022/03/05 01:15:50;;;;;;;;;53.25;41.75;;;;;10.63;66.00;101505.34;5076299;27;45200;-44
2022/03/05 01:18:16;;;;;;;;;47.50;39.50;;;;;10.60;65.90;101508.25;5076009;27;45928;-44
2022/03/05 01:20:41;;;;;;;;;58.50;39.75;;;;;10.60;65.82;101518.91;5076060;27;45382;-45
2022/03/05 01:23:07;;;;;;;;;56.25;40.75;;;;;10.48;65.99;101504.81;5076150;27;45606;-44
2022/03/05 01:25:32;;;;;;;;;59.50;40.50;;;;;10.47;66.16;101508.44;5076315;27;45595;-42
2022/03/05 01:27:57;;;;;;;;;56.25;42.25;;;;;10.36;66.11;101497.84;5075691;27;45507;-42
2022/03/05 01:30:23;;;;;;;;;52.50;40.25;;;;;10.40;66.41;101509.91;5078675;27;45350;-45
2022/03/05 01:32:48;;;;;;;;;50.25;38.50;;;;;10.37;66.90;101504.03;5079563;27;45852;-44
2022/03/05 01:35:13;;;;;;;;;59.50;40.50;;;;;10.36;66.50;101504.97;5079778;27;45496;-45
2022/03/05 01:37:39;;;;;;;;;54.50;42.50;;;;;10.33;66.25;101508.75;5079415;27;45974;-48
2022/03/05 01:40:05;;;;;;;;;55.50;41.00;;;;;10.31;66.72;101501.84;5079561;27;45540;-45
2022/03/05 01:42:31;;;;;;;;;51.00;35.50;;;;;10.25;66.64;101497.91;5079532;27;45440;-43
2022/03/05 01:44:56;;;;;;;;;58.25;40.00;;;;;10.34;66.45;101514.91;5079317;27;45530;-43
2022/03/05 01:47:22;;;;;;;;;44.50;36.75;;;;;10.35;66.46;101512.13;5079210;27;47022;-43
2022/03/05 01:49:47;;;;;;;;;52.25;39.75;;;;;10.35;66.52;101517.44;5079258;27;45352;-45
2022/03/05 01:52:13;;;;;;;;;53.00;37.00;;;;;10.28;66.37;101505.63;5079310;27;45455;-43
2022/03/05 01:54:39;;;;;;;;;43.00;35.50;;;;;10.32;66.11;101511.53;5079186;27;45524;-43
2022/03/05 01:57:05;;;;;;;;;53.50;40.25;;;;;10.33;66.47;101513.22;5078983;27;47052;-44
2022/03/05 01:59:32;;;;;;;;;44.75;32.25;;;;;10.29;66.33;101509.13;5079130;27;45360;-43
2022/03/05 02:01:57;;;;;;;;;40.00;36.00;;;;;10.23;66.93;101516.59;5079313;27;45220;-43
2022/03/05 02:04:22;;;;;;;;;60.50;39.75;;;;;10.19;67.14;101516.97;5079286;27;45357;-44
2022/03/05 02:06:48;;;;;;;;;44.25;35.50;;;;;10.10;67.10;101512.41;5077310;28;46330;-44
2022/03/05 02:09:13;;;;;;;;;47.50;30.50;;;;;10.09;66.96;101511.56;5078959;27;45308;-44
2022/03/05 02:11:39;;;;;;;;;50.75;32.75;;;;;10.06;66.63;101511.81;5079054;27;45382;-43
2022/03/05 02:14:05;;;;;;;;;49.75;40.75;;;;;10.03;67.14;101513.88;5079229;27;45404;-44
2022/03/05 02:16:31;;;;;;;;;43.00;36.75;;;;;10.00;67.50;101514.97;5078528;27;46262;-45
2022/03/05 02:18:56;;;;;;;;;47.50;37.75;;;;;9.97;67.64;101509.91;5078729;27;45291;-42
2022/03/05 02:21:26;;;;;;;;;51.00;38.50;;;;;9.94;68.06;101513.66;5078710;27;45395;-43
2022/03/05 02:23:53;;;;;;;;;54.00;38.00;;;;;9.94;67.83;101511.00;5078687;27;45243;-44
2022/03/05 02:26:18;;;;;;;;;47.50;35.25;;;;;9.96;68.14;101518.84;5077821;27;46381;-43
2022/03/05 02:28:44;;;;;;;;;57.25;39.00;;;;;9.98;67.91;101503.59;5078175;27;45450;-42
2022/03/05 02:31:10;;;;;;;;;45.75;37.75;;;;;9.99;67.40;101505.31;5078604;27;45423;-44
2022/03/05 02:33:36;;;;;;;;;41.50;31.50;;;;;10.00;67.54;101509.66;5078667;27;45512;-43
2022/03/05 02:36:05;;;;;;;;;47.75;37.00;;;;;9.97;67.80;101499.25;5077926;27;45370;-43
2022/03/05 02:38:30;;;;;;;;;45.25;35.75;;;;;9.99;67.52;101506.16;5078411;27;45296;-46
2022/03/05 02:40:56;;;;;;;;;43.75;38.00;;;;;10.02;67.84;101505.03;5076839;27;45319;-43
2022/03/05 02:43:22;;;;;;;;;46.75;36.50;;;;;10.06;67.99;101509.16;5078504;27;45268;-44
2022/03/05 02:45:49;;;;;;;;;47.50;40.00;;;;;10.08;67.27;101506.38;5078150;27;45174;-44
2022/03/05 02:48:16;;;;;;;;;40.75;34.00;;;;;10.08;67.30;101499.25;5078026;28;45604;-43
2022/03/05 02:50:44;;;;;;;;;54.75;36.00;;;;;10.12;67.36;101503.34;5078305;27;45241;-44
2022/03/05 02:53:10;;;;;;;;;43.75;33.25;;;;;10.14;67.34;101501.41;5078062;27;45267;-44
2022/03/05 02:55:36;;;;;;;;;50.00;37.75;;;;;10.15;66.58;101488.94;5078024;27;46165;-42
2022/03/05 02:58:02;;;;;;;;;42.75;30.75;;;;;10.18;66.92;101499.34;5078050;27;45378;-42
2022/03/05 03:00:28;;;;;;;;;46.25;34.50;;;;;10.17;66.53;101501.16;5078136;27;45481;-43
2022/03/05 03:02:53;;;;;;;;;42.25;35.25;;;;;10.15;66.67;101495.09;5078170;27;45345;-42
2022/03/05 03:05:19;;;;;;;;;40.75;28.75;;;;;10.15;66.78;101497.75;5077905;27;46030;-45
2022/03/05 03:07:45;;;;;;;;;41.00;38.00;;;;;10.12;66.62;101495.38;5077652;27;45493;-42
2022/03/05 03:10:11;;;;;;;;;44.00;35.75;;;;;10.10;66.41;101491.13;5077881;27;45446;-43
2022/03/05 03:12:38;;;;;;;;;52.75;34.50;;;;;10.09;66.58;101494.78;5078180;27;45294;-43
2022/03/05 03:15:05;;;;;;;;;46.50;32.00;;;;;10.07;66.58;101499.34;5077546;27;46201;-42
2022/03/05 03:17:48;;;;;;;;;42.00;35.75;;;;;10.05;67.00;101496.00;5077624;27;45341;-41
2022/03/05 03:20:18;;;;;;;;;48.50;34.00;;;;;10.05;67.13;101490.66;5077829;27;45338;-43
2022/03/05 03:22:44;;;;;;;;;49.00;35.25;;;;;10.07;66.81;101488.72;5077813;27;45386;-43
2022/03/05 03:25:10;;;;;;;;;44.00;34.50;;;;;10.09;66.44;101489.47;5077551;27;46249;-43
2022/03/05 03:27:36;;;;;;;;;50.75;37.00;;;;;10.09;67.02;101487.63;5077622;27;45658;-43
2022/03/05 03:30:04;;;;;;;;;50.50;37.00;;;;;10.09;66.43;101494.78;5077762;27;45397;-43
2022/03/05 03:32:29;;;;;;;;;40.25;33.75;;;;;10.07;66.48;101489.59;5077947;27;45228;-43
2022/03/05 03:34:55;;;;;;;;;40.25;35.25;;;;;10.05;66.28;101488.84;5077259;27;46953;-44
2022/03/05 03:37:21;;;;;;;;;56.00;38.25;;;;;10.04;66.90;101486.34;5077465;27;45357;-44
2022/03/05 03:39:46;;;;;;;;;41.50;35.50;;;;;10.02;66.66;101488.25;5077593;27;45397;-43
2022/03/05 03:42:12;;;;;;;;;46.75;37.00;;;;;10.00;67.03;101483.91;5077651;27;45303;-42
2022/03/05 03:44:37;;;;;;;;;56.25;39.75;;;;;9.98;66.95;101487.66;5077592;27;45358;-44
2022/03/05 03:47:03;;;;;;;;;48.75;36.25;;;;;9.97;66.27;101494.78;5077144;27;45250;-43
2022/03/05 03:49:28;;;;;;;;;47.00;38.75;;;;;9.92;67.02;101486.34;5077791;27;45476;-43
2022/03/05 03:51:53;;;;;;;;;54.50;37.50;;;;;9.92;66.37;101496.97;5076942;27;45818;-43
2022/03/05 03:54:19;;;;;;;;;52.50;39.00;;;;;9.92;66.80;101496.97;5077036;27;45517;-45
2022/03/05 03:56:44;;;;;;;;;43.50;34.25;;;;;9.92;66.60;101502.31;5077181;27;45570;-43
2022/03/05 03:59:10;;;;;;;;;34.50;31.50;;;;;9.86;66.57;101488.66;5077005;27;45298;-45
2022/03/05 04:01:35;;;;;;;;;43.75;35.00;;;;;9.88;66.55;101487.56;5077535;27;45802;-43
2022/03/05 04:04:01;;;;;;;;;50.75;36.75;;;;;9.86;66.32;101493.97;5076884;27;46149;-44
2022/03/05 04:08:41;;;;;;;;;40.00;32.50;;;;;9.81;66.28;101489.03;5076908;27;45424;-44
2022/03/05 04:09:11;;;;;;;;;43.75;37.75;;;;;9.81;66.47;101496.16;5077076;28;45781;-44
2022/03/05 04:11:37;;;;;;;;;37.50;30.75;;;;;9.80;65.92;101494.47;5077039;27;45309;-44
2022/03/05 04:14:02;;;;;;;;;43.25;35.50;;;;;9.74;66.90;101493.16;5076979;28;45827;-44
2022/03/05 04:16:28;;;;;;;;;54.75;37.75;;;;;9.72;66.52;101493.25;5077050;27;45363;-43
2022/03/05 04:18:53;;;;;;;;;48.00;37.00;;;;;9.69;67.32;101497.97;5077335;27;45460;-43
2022/03/05 04:21:18;;;;;;;;;30.50;27.00;;;;;9.61;67.38;101489.78;5077126;27;45308;-43
2022/03/05 04:23:44;;;;;;;;;39.50;33.75;;;;;9.63;67.15;101499.31;5076524;28;45481;-43
2022/03/05 04:26:09;;;;;;;;;39.25;34.50;;;;;9.66;67.20;101499.09;5076634;27;45396;-43
2022/03/05 04:28:34;;;;;;;;;57.25;36.25;;;;;9.62;67.60;101497.63;5076729;27;45353;-44
2022/03/05 04:31:00;;;;;;;;;47.50;38.00;;;;;9.62;66.96;101500.28;5077041;28;45288;-43
2022/03/05 04:33:25;;;;;;;;;42.25;34.75;;;;;9.61;67.83;101500.44;5076579;27;46093;-43
2022/03/05 04:35:50;;;;;;;;;54.75;39.50;;;;;9.59;67.31;101495.22;5076826;27;45325;-43
2022/03/05 04:38:16;;;;;;;;;52.75;38.00;;;;;9.57;67.70;101491.00;5076491;27;45375;-43
2022/03/05 04:40:41;;;;;;;;;48.00;37.75;;;;;9.56;67.09;101497.25;5076934;27;45295;-43
2022/03/05 04:43:06;;;;;;;;;35.00;25.75;;;;;9.55;67.59;101506.22;5076096;27;45951;-43
2022/03/05 04:45:32;;;;;;;;;43.00;32.50;;;;;9.50;67.77;101499.44;5076616;27;45304;-44
2022/03/05 04:47:57;;;;;;;;;47.75;35.00;;;;;9.47;67.67;101499.69;5076704;27;45757;-42
2022/03/05 04:50:22;;;;;;;;;44.25;33.75;;;;;9.45;66.72;101501.63;5076701;27;45442;-44
2022/03/05 04:52:48;;;;;;;;;48.25;39.00;;;;;9.43;67.78;101502.69;5076344;27;45241;-43
2022/03/05 04:55:13;;;;;;;;;56.00;39.00;;;;;9.42;67.84;101504.50;5076312;27;45387;-43
2022/03/05 04:57:39;;;;;;;;;47.25;38.00;;;;;9.43;67.39;101505.34;5076728;27;45752;-43
2022/03/05 05:00:07;;;;;;;;;56.25;40.25;;;;;9.43;68.04;101508.84;5076541;27;45267;-44
2022/03/05 05:02:32;;;;;;;;;47.50;36.25;;;;;9.41;67.92;101508.13;5075583;27;45397;-43
2022/03/05 05:04:57;;;;;;;;;47.75;34.50;;;;;9.42;67.47;101511.63;5078334;27;45435;-43
2022/03/05 05:07:23;;;;;;;;;47.75;36.25;;;;;9.39;67.64;101509.22;5079747;27;45441;-44
2022/03/05 05:09:48;;;;;;;;;59.25;43.00;;;;;9.35;68.59;101507.75;5080430;27;45376;-42
2022/03/05 05:12:14;;;;;;;;;58.00;42.75;;;;;9.32;68.33;101511.53;5079582;27;45382;-43
2022/03/05 05:14:39;;;;;;;;;51.25;40.25;;;;;9.30;68.73;101509.94;5079764;27;45302;-43
2022/03/05 05:17:05;;;;;;;;;52.25;39.75;;;;;9.24;68.77;101509.47;5079648;27;45320;-43
2022/03/05 05:19:30;;;;;;;;;55.25;40.50;;;;;9.24;69.21;101513.94;5079913;27;45359;-44
2022/03/05 05:22:01;;;;;;;;;58.75;41.00;;;;;9.23;68.09;101520.22;5079716;27;46056;-43
2022/03/05 05:24:29;;;;;;;;;58.50;42.50;;;;;9.22;68.78;101519.34;5079331;27;45950;-43
2022/03/05 05:26:55;;;;;;;;;55.25;41.00;;;;;9.19;69.23;101521.41;5078271;28;45369;-44
2022/03/05 05:29:21;;;;;;;;;60.50;40.50;;;;;9.12;69.45;101518.38;5079699;27;45350;-44
2022/03/05 05:31:48;;;;;;;;;48.25;39.25;;;;;9.08;69.14;101519.56;5079039;27;46376;-43
2022/03/05 05:34:13;;;;;;;;;56.25;41.00;;;;;9.06;69.70;101532.13;5079386;27;45373;-42
2022/03/05 05:36:39;;;;;;;;;39.00;35.50;;;;;9.05;69.60;101525.09;5079545;27;45551;-45
2022/03/05 05:39:06;;;;;;;;;56.50;42.25;;;;;9.05;69.04;101519.78;5079705;27;45417;-43
2022/03/05 05:41:32;;;;;;;;;53.75;37.75;;;;;8.98;69.42;101524.75;5079392;27;46250;-43
2022/03/05 05:43:58;;;;;;;;;54.50;41.00;;;;;9.02;70.28;101538.63;5078974;27;45740;-43
2022/03/05 05:46:23;;;;;;;;;61.50;42.75;;;;;9.03;70.10;101539.47;5079173;27;45219;-44
2022/03/05 05:48:48;;;;;;;;;47.50;39.50;;;;;9.00;70.33;101527.28;5079630;27;45441;-44
2022/03/05 05:51:14;;;;;;;;;58.50;42.25;;;;;9.06;69.44;101531.25;5079108;27;47111;-44
2022/03/05 05:53:39;;;;;;;;;59.25;41.50;;;;;9.06;70.58;101532.13;5079116;27;45304;-44
2022/03/05 05:56:04;;;;;;;;;52.50;41.50;;;;;9.06;70.05;101532.13;5079401;27;45279;-43
2022/03/05 05:58:30;;;;;;;;;60.75;43.25;;;;;9.06;70.44;101534.78;5079458;28;45386;-43
2022/03/05 06:00:55;;;;;;;;;46.50;38.25;;;;;9.05;69.41;101533.06;5078999;27;46244;-44
2022/03/05 06:03:21;;;;;;;;;52.75;41.00;;;;;9.03;70.21;101535.00;5078818;27;45328;-43
2022/03/05 06:05:46;;;;;;;;;57.00;39.75;;;;;8.96;69.98;101525.81;5079328;27;45382;-43
2022/03/05 06:08:11;;;;;;;;;57.00;43.00;;;;;9.01;69.72;101544.88;5079404;27;45303;-44
2022/03/05 06:10:38;;;;;;;;;51.00;41.00;;;;;8.96;69.85;101533.78;5078865;27;45334;-43
2022/03/05 06:13:03;;;;;;;;;64.75;42.00;;;;;9.05;70.18;101540.19;5079080;27;45414;-43
2022/03/05 06:15:28;;;;;;;;;50.75;39.50;;;;;9.03;69.77;101540.31;5078385;27;45654;-46
2022/03/05 06:17:56;;;;;;;;;52.75;41.00;;;;;9.02;70.47;101543.06;5079202;27;45343;-44
2022/03/05 06:20:22;;;;;;;;;60.75;44.75;;;;;9.03;69.82;101545.63;5078672;27;47150;-44
2022/03/05 06:22:48;;;;;;;;;54.00;43.25;;;;;9.03;69.49;101547.44;5078376;27;45387;-43
2022/03/05 06:25:14;;;;;;;;;61.25;41.75;;;;;9.04;69.73;101549.97;5078789;27;45232;-44
2022/03/05 06:27:39;;;;;;;;;60.25;42.50;;;;;9.04;69.63;101551.78;5078971;27;45420;-43
2022/03/05 06:30:05;;;;;;;;;57.25;41.75;;;;;9.04;69.61;101551.78;5078535;27;46233;-43
2022/03/05 06:32:31;;;;;;;;;61.00;43.50;;;;;9.05;70.41;101548.16;5078389;27;45456;-42
2022/03/05 06:34:56;;;;;;;;;56.50;41.75;;;;;9.08;69.49;101555.88;5078664;27;45500;-43
2022/03/05 06:37:22;;;;;;;;;60.00;45.00;;;;;9.09;68.88;101557.56;5077368;28;45781;-43
2022/03/05 06:39:48;;;;;;;;;46.75;35.75;;;;;9.08;68.58;101556.72;5078143;27;45462;-43
2022/03/05 06:42:14;;;;;;;;;58.50;41.00;;;;;9.07;69.04;101552.38;5078090;27;45386;-44
2022/03/05 06:44:40;;;;;;;;;60.50;44.25;;;;;9.06;69.02;101557.78;5078194;27;45404;-43
2022/03/05 06:47:06;;;;;;;;;55.25;39.25;;;;;9.07;68.56;101560.34;5078722;27;45333;-45
2022/03/05 06:49:31;;;;;;;;;63.50;44.25;;;;;9.03;68.90;101550.94;5078249;27;46096;-44
2022/03/05 06:51:58;;;;;;;;;57.50;41.00;;;;;9.14;69.16;101566.03;5078295;27;45358;-44
2022/03/05 06:54:23;;;;;;;;;49.75;41.25;;;;;9.16;68.38;101570.25;5078337;27;45413;-45
2022/03/05 06:56:49;;;;;;;;;61.50;44.25;;;;;9.15;68.73;101571.22;5078508;28;45405;-45
2022/03/05 06:59:14;;;;;;;;;59.50;42.00;;;;;9.17;67.74;101582.56;5077848;27;46087;-43
2022/03/05 07:01:39;;;;;;;;;50.50;42.50;;;;;9.24;68.25;101577.66;5078197;27;45469;-44
2022/03/05 07:04:05;;;;;;;;;61.00;45.75;;;;;9.29;68.28;101575.47;5078144;27;45601;-42
2022/03/05 07:06:30;;;;;;;;;59.75;42.75;;;;;9.36;67.60;101565.25;5078301;27;45323;-43
2022/03/05 07:08:55;;;;;;;;;59.25;43.00;;;;;9.44;66.92;101574.31;5077846;27;45997;-44
2022/03/05 07:11:21;;;;;;;;;50.25;41.50;;;;;9.53;66.57;101578.06;5077720;27;45375;-44
2022/03/05 07:13:46;;;;;;;;;58.00;43.00;;;;;9.61;66.57;101575.66;5078201;27;45257;-44
2022/03/05 07:16:12;;;;;;;;;51.75;41.25;;;;;9.63;66.11;101579.00;5078289;27;45407;-43
2022/03/05 07:18:37;;;;;;;;;52.75;42.50;;;;;9.62;66.18;101585.28;5077969;27;45317;-42
2022/03/05 07:21:03;;;;;;;;;49.75;42.00;;;;;9.61;66.52;101588.94;5077848;27;45388;-44
2022/03/05 07:23:28;;;;;;;;;58.75;43.25;;;;;9.58;66.52;101583.84;5077539;27;45560;-43
2022/03/05 07:25:53;;;;;;;;;61.25;42.50;;;;;9.58;66.47;101588.31;5078168;27;45362;-44
2022/03/05 07:28:19;;;;;;;;;58.25;45.50;;;;;9.58;66.50;101585.66;5076892;27;47418;-43
2022/03/05 07:30:44;;;;;;;;;55.50;41.00;;;;;9.62;66.41;101590.59;5077733;28;45424;-44
2022/03/05 07:33:10;;;;;;;;;60.50;46.50;;;;;9.62;66.27;101590.59;5077815;27;45643;-43
2022/03/05 07:35:35;;;;;;;;;57.25;43.50;;;;;9.65;66.16;101595.69;5077879;27;45373;-44
2022/03/05 07:38:00;;;;;;;;;59.75;39.75;;;;;9.67;66.59;101592.91;5077439;27;46091;-43
2022/03/05 07:40:26;;;;;;;;;62.75;46.00;;;;;9.70;66.20;101592.69;5077244;27;45457;-43
2022/03/05 07:42:51;;;;;;;;;56.00;41.75;;;;;9.66;65.85;101586.75;5077491;27;45333;-46
2022/03/05 07:45:17;;;;;;;;;66.50;46.50;;;;;9.75;66.09;101604.63;5077461;27;45440;-42
2022/03/05 07:47:42;;;;;;;;;59.75;45.50;;;;;9.82;66.11;101598.81;5077219;27;47190;-44
2022/03/05 07:50:09;;;;;;;;;56.75;44.00;;;;;9.87;65.92;101608.13;5077402;27;45409;-42
2022/03/05 07:52:34;;;;;;;;;57.25;41.50;;;;;9.86;65.17;101600.25;5077575;27;45314;-45
2022/03/05 07:55:00;;;;;;;;;67.50;47.25;;;;;9.89;64.71;101610.66;5077405;27;45379;-45
2022/03/05 07:57:25;;;;;;;;;61.75;46.00;;;;;9.78;64.84;101600.88;5077112;27;45972;-42
2022/03/05 07:59:50;;;;;;;;;63.50;46.00;;;;;9.85;64.69;101610.06;5077140;27;45427;-44
2022/03/05 08:02:16;;;;;;;;;60.50;45.50;;;;;9.86;64.51;101611.75;5077164;27;45432;-45
2022/03/05 08:04:43;;;;;;;;;61.75;45.00;;;;;9.89;64.92;101616.81;5077379;27;45330;-43
2022/03/05 08:07:09;;;;;;;;;61.00;44.00;;;;;9.92;64.42;101607.78;5076976;28;46222;-44
2022/03/05 08:09:38;;;;;;;;;51.25;40.25;;;;;9.89;64.26;101619.47;5077009;27;45336;-43
2022/03/05 08:12:04;;;;;;;;;54.25;41.00;;;;;9.92;64.37;101619.25;5077428;27;45451;-46
2022/03/05 08:14:30;;;;;;;;;64.25;45.00;;;;;9.90;63.93;101612.34;5077230;27;45600;-43
2022/03/05 08:16:55;;;;;;;;;60.00;45.75;;;;;9.89;63.55;101614.16;5076948;27;45323;-46
2022/03/05 08:19:21;;;;;;;;;64.75;42.00;;;;;9.87;63.85;101621.41;5075865;27;45411;-44
2022/03/05 08:21:46;;;;;;;;;56.75;44.00;;;;;9.90;63.65;101622.97;4979279;27;45316;-44
2022/03/05 08:24:11;;;;;;;;;64.00;45.50;;;;;9.90;64.12;101615.88;4974246;28;45336;-44
2022/03/05 08:26:37;;;;;;;;;69.75;44.75;;;;;9.94;64.39;101616.44;4974131;28;46193;-47
2022/03/05 08:29:03;;;;;;;;;63.75;47.25;;;;;9.97;64.14;101619.72;5024554;28;45303;-52
2022/03/05 08:31:31;;;;;;;;;60.25;45.25;;;;;10.07;63.96;101611.88;5076813;27;45350;-47
2022/03/05 08:33:58;;;;;;;;;56.75;42.50;;;;;10.17;64.18;101623.47;5076848;27;45304;-43
2022/03/05 08:36:24;;;;;;;;;62.25;43.50;;;;;10.25;63.82;101609.59;5076048;27;45936;-45
2022/03/05 08:38:49;;;;;;;;;67.00;43.00;;;;;10.32;63.01;101615.25;5075815;27;45309;-44
2022/03/05 08:41:15;;;;;;;;;62.00;48.25;;;;;10.36;63.37;101614.88;5076049;27;45590;-45
2022/03/05 08:43:42;;;;;;;;;54.75;42.25;;;;;10.39;62.71;101608.47;5076053;27;45291;-45
2022/03/05 08:46:08;;;;;;;;;60.50;45.00;;;;;10.49;62.05;101620.03;5076223;27;45733;-44
2022/03/05 08:48:34;;;;;;;;;57.75;43.00;;;;;10.54;62.20;101617.88;5075770;27;45845;-44
2022/03/05 08:50:59;;;;;;;;;61.50;41.75;;;;;10.61;62.03;101624.34;5076549;27;45401;-47
2022/03/05 08:53:25;;;;;;;;;58.00;43.75;;;;;10.61;61.41;101604.88;5076127;27;45442;-47
2022/03/05 08:55:51;;;;;;;;;56.50;44.00;;;;;10.76;61.67;101616.94;5076059;27;47110;-46
2022/03/05 08:58:16;;;;;;;;;51.00;41.25;;;;;10.94;62.17;101617.22;5076296;27;45628;-44
2022/03/05 09:00:42;;;;;;;;;57.50;43.00;;;;;11.06;61.50;101610.03;5076021;27;45256;-46
2022/03/05 09:03:07;;;;;;;;;44.75;36.50;;;;;11.27;60.96;101618.88;5076401;27;45461;-44
2022/03/05 09:05:32;;;;;;;;;57.25;43.25;;;;;11.38;60.65;101607.34;5075799;27;45420;-45
2022/03/05 09:07:58;;;;;;;;;51.75;40.75;;;;;11.59;60.60;101615.31;5076142;27;45337;-44
2022/03/05 09:10:23;;;;;;;;;59.50;40.25;;;;;11.74;60.37;101612.16;5076005;27;45524;-44
2022/03/05 09:12:48;;;;;;;;;60.00;45.00;;;;;11.90;60.21;101624.19;5076325;27;45316;-45
2022/03/05 09:15:15;;;;;;;;;57.00;41.50;;;;;12.09;59.80;101618.06;5075939;27;46017;-43
2022/03/05 09:17:42;;;;;;;;;54.75;43.50;;;;;12.32;59.01;101618.72;5075777;27;45301;-42
2022/03/05 09:20:08;;;;;;;;;59.25;41.75;;;;;12.55;58.66;101609.47;5075992;27;45376;-44
2022/03/05 09:22:33;;;;;;;;;60.75;41.75;;;;;12.81;58.18;101614.28;5076023;27;45298;-43
2022/03/05 09:24:59;;;;;;;;;56.00;39.75;;;;;12.93;57.51;101597.13;5075171;27;45398;-44
2022/03/05 09:27:24;;;;;;;;;61.25;43.25;;;;;13.22;56.65;101611.34;5075787;27;45446;-46
2022/03/05 09:29:50;;;;;;;;;55.25;40.00;;;;;13.44;56.16;101618.22;5075946;27;45320;-48
2022/03/05 09:32:16;;;;;;;;;55.25;39.25;;;;;13.69;55.82;101615.88;5075968;27;45450;-45
2022/03/05 09:34:41;;;;;;;;;54.00;40.25;;;;;13.91;54.82;101609.34;5075612;27;46252;-45
2022/03/05 09:37:07;;;;;;;;;64.25;42.75;;;;;14.15;54.44;101609.63;5075383;27;45382;-43
2022/03/05 09:39:32;;;;;;;;;50.75;39.50;;;;;14.78;53.53;101616.03;5075583;27;45524;-46
2022/03/05 09:41:58;;;;;;;;;54.50;40.50;;;;;15.07;52.19;101613.94;5075701;27;45314;-45
2022/03/05 09:44:23;;;;;;;;;56.25;40.75;;;;;15.50;51.40;101611.41;5075135;27;46182;-44
2022/03/05 09:46:50;;;;;;;;;55.25;42.50;;;;;16.04;50.01;101607.53;5075661;27;45383;-45
2022/03/05 09:49:16;;;;;;;;;51.67;37.67;;;;;16.81;48.16;101602.06;5075617;27;45479;-45
2022/03/05 09:51:41;;;;;;;;;51.67;37.33;;;;;16.85;48.14;101603.41;5078568;27;45689;-47
2022/03/05 09:54:06;;;;;;;;;50.00;39.67;;;;;16.80;47.82;101592.31;5078967;27;45838;-46
2022/03/05 09:56:32;;;;;;;;;44.00;37.00;;;;;17.72;46.63;101593.75;5078831;27;45437;-47
2022/03/05 09:58:57;;;;;;;;;51.00;38.67;;;;;19.19;43.55;101604.53;5079135;28;45324;-47
2022/03/05 10:01:23;;;;;;;;;52.00;36.00;;;;;19.41;42.30;101594.72;5078851;27;45332;-47
2022/03/05 10:03:50;;;;;;;;;46.67;38.67;;;;;21.43;41.17;101596.66;5078861;28;45466;-49
2022/03/05 10:06:18;;;;;;;;;42.67;34.67;;;;;22.35;37.94;101591.97;5078698;27;45366;-45
2022/03/05 10:08:45;;;;;;;;;42.67;35.00;;;;;23.53;35.28;101590.41;5078610;27;45418;-45
2022/03/05 10:11:12;;;;;;;;;42.33;33.67;;;;;24.53;34.13;101587.34;4993766;27;45485;-48
2022/03/05 10:13:40;;;;;;;;;36.00;32.67;;;;;25.30;31.96;101585.31;4956164;28;45456;-48
2022/03/05 10:16:30;;;;;;;;;45.00;36.67;;;;;25.90;31.21;101581.97;4956253;28;45446;-46
2022/03/05 10:19:17;;;;;;;;;46.67;36.67;;;;;26.37;30.44;101583.03;4956517;28;45366;-45
2022/03/05 10:22:03;;;;;;;;;45.00;33.67;;;;;26.90;30.25;101586.91;4956370;28;45552;-47
2022/03/05 10:24:37;;;;;;;;;39.67;32.67;;;;;27.45;29.85;101587.44;4955856;28;46213;-48
2022/03/05 10:27:05;;;;;;;;;46.33;35.67;;;;;27.69;27.56;101582.78;4956194;28;45250;-45
2022/03/05 10:29:37;;;;;;;;;49.67;35.67;;;;;27.88;29.03;101585.38;4956037;28;45454;-45
2022/03/05 10:32:05;;;;;;;;;43.50;35.00;;;;;27.95;28.07;101583.34;4956256;28;45387;-45
2022/03/05 10:34:45;;;;;;;;;39.00;32.67;;;;;27.67;27.01;101578.63;4955791;28;46263;-44
2022/03/05 10:37:11;;;;;;;;;45.00;34.00;;;;;27.35;25.73;101584.50;4956054;28;45301;-45
2022/03/05 10:39:37;;;;;;;;;47.00;38.00;;;;;26.81;26.87;101575.50;4955893;28;45403;-46
2022/03/05 10:42:03;;;;;;;;;47.00;38.67;;;;;26.25;26.95;101579.41;4956082;28;45395;-45
2022/03/05 10:44:28;;;;;;;;;42.75;36.50;;;;;26.01;28.38;101581.22;4955790;28;46105;-45
2022/03/05 10:46:59;;;;;;;;;45.50;35.25;;;;;25.88;27.86;101582.22;4957364;28;45399;-46
2022/03/05 10:49:37;;;;;;;;;39.50;32.25;;;;;25.82;29.42;101581.22;4955966;28;45370;-46
2022/03/05 10:52:02;;;;;;;;;41.75;36.25;;;;;25.80;27.90;101582.53;4956174;28;45468;-46
2022/03/05 10:54:43;;;;;;;;;44.75;33.50;;;;;25.74;29.52;101576.03;4955598;28;46301;-47
2022/03/05 10:57:16;;;;;;;;;47.25;35.75;;;;;25.73;27.92;101576.28;4955667;28;45477;-44
2022/03/05 10:59:47;;;;;;;;;45.00;36.00;;;;;25.81;29.78;101574.09;4955810;28;45330;-43
2022/03/05 11:02:18;;;;;;;;;45.50;37.00;;;;;25.92;29.03;101571.69;4955876;28;45439;-46
2022/03/05 11:04:44;;;;;;;;;47.50;36.75;;;;;26.04;28.96;101575.28;4955303;28;46854;-49
2022/03/05 11:07:11;;;;;;;;;39.75;32.75;;;;;26.13;26.82;101566.59;4955579;28;45404;-54